CDT,Max TemperatureF,Mean TemperatureF,Min TemperatureF,Max Dew PointF,MeanDew PointF,Min DewpointF,Max Humidity, Mean Humidity, Min Humidity, Max Sea Level PressureIn, Mean Sea Level PressureIn, Min Sea Level PressureIn, Max VisibilityMiles, Mean VisibilityMiles, Min VisibilityMiles, Max Wind SpeedMPH, Mean Wind SpeedMPH, Max Gust SpeedMPH,PrecipitationIn, CloudCover, Events, WindDirDegrees
2012-9-1,93,79,65,69,66,62,99,67,37,30.06,30.01,29.94,10,10,4,8,2,,0.00,0,,65
2012-9-2,95,80,64,66,63,59,86,60,34,29.99,29.93,29.86,10,10,10,12,6,17,0.00,0,,140
2012-9-3,88,78,69,71,68,66,91,70,49,29.97,29.91,29.86,10,10,10,16,6,20,0.00,1,Rain,112
2012-9-4,100,84,68,71,65,55,98,63,24,29.90,29.83,29.71,10,9,4,13,5,23,0.00,0,,152
2012-9-5,88,74,59,61,52,44,86,49,23,29.98,29.88,29.73,10,10,10,17,7,24,0.00,0,,329
2012-9-6,91,70,50,64,51,45,86,53,22,30.01,29.91,29.77,10,10,3,17,5,24,0.00,0,,144
2012-9-7,76,68,56,65,53,43,85,61,33,30.14,29.99,29.77,10,10,10,16,9,23,0.02,2,Rain,326
2012-9-8,86,64,43,49,43,38,95,53,19,30.19,30.10,29.97,10,10,10,20,7,30,0.00,0,,292
2012-9-9,77,60,45,48,44,41,85,56,31,30.26,30.18,30.12,10,10,10,7,3,,0.00,0,,97
2012-9-10,89,72,55,52,49,47,74,47,24,30.13,30.01,29.87,10,10,10,23,11,30,0.00,0,,163
2012-9-11,97,80,63,53,50,46,66,39,19,29.91,29.87,29.82,10,10,10,21,13,33,0.00,0,,164
2012-9-12,76,66,54,58,50,39,99,59,33,30.31,30.08,29.89,10,10,4,25,9,34,0.49,3,Rain-Thunderstorm,20
2012-9-13,70,61,52,54,50,40,99,73,33,30.44,30.37,30.30,10,10,10,9,3,,0.04,2,Rain,149
2012-9-14,82,64,48,49,44,36,95,52,22,30.37,30.32,30.25,10,10,10,14,6,18,0.00,0,,198
2012-9-15,79,64,48,60,50,44,89,61,33,30.28,30.19,30.08,10,10,10,15,6,17,0.00,0,,167
2012-9-16,78,68,58,61,59,55,100,80,44,30.08,30.00,29.90,10,9,2,13,7,17,0.00,2,,183
2012-9-17,68,58,48,60,50,37,100,74,33,30.09,30.00,29.91,10,10,5,15,5,23,0.07,3,Rain-Thunderstorm,3
2012-9-18,72,54,36,44,39,36,100,61,29,30.13,30.05,29.92,10,10,10,10,3,,0.00,0,,212
2012-9-19,93,72,51,50,43,33,82,46,17,30.02,29.88,29.79,10,10,10,25,8,40,0.00,0,,227
2012-9-20,73,58,44,48,40,33,84,53,25,30.08,30.01,29.95,10,10,10,18,4,24,0.00,1,Rain,282
2012-9-21,76,62,47,48,39,32,80,45,20,29.96,29.89,29.83,10,10,7,25,8,34,0.00,0,,288
2012-9-22,64,52,39,40,30,24,76,46,22,30.31,30.22,29.96,10,10,7,13,6,28,0.00,0,,335
2012-9-23,70,52,34,38,32,28,83,52,25,30.36,30.28,30.20,10,10,10,8,2,,0.00,0,,127
2012-9-24,75,58,42,50,43,37,82,55,32,30.20,30.00,29.85,10,10,10,12,2,,0.00,1,Rain,160
2012-9-25,85,65,45,52,47,42,93,60,22,29.93,29.86,29.83,10,10,7,5,1,,0.00,0,,323
2012-9-26,78,61,44,43,35,27,79,42,17,30.16,30.06,29.92,10,10,7,9,2,16,0.00,0,,21
2012-9-27,77,56,35,44,33,29,82,47,18,30.23,30.17,30.13,10,9,1,6,1,,0.00,0,,29
2012-9-28,76,56,37,43,35,31,83,52,19,30.21,30.16,30.12,10,9,5,8,1,,0.00,0,,135
2012-9-29,79,60,40,48,41,36,86,56,21,30.19,30.12,30.05,10,9,5,7,1,,0.00,0,,168
2012-9-30,81,62,44,49,43,38,80,56,24,30.06,29.99,29.92,10,9,5,6,1,,0.00,0,,243